sensor_id;sensor_type;location;lat;lon;timestamp;pressure;altitude;pressure_sealevel;temperature;humidity
60465;BME280;46314;52.392;9.758;2022-12-18T00:01:23;102267.88;;;-3.24;68.88
60465;BME280;46314;52.392;9.758;2022-12-18T00:03:51;102266.69;;;-3.46;69.71
60465;BME280;46314;52.392;9.758;2022-12-18T00:06:18;102266.28;;;-4.01;70.38
60465;BME280;46314;52.392;9.758;2022-12-18T00:08:45;102264.66;;;-3.52;69.59
60465;BME280;46314;52.392;9.758;2022-12-18T00:11:14;102261.09;;;-3.53;69.17
60465;BME280;46314;52.392;9.758;2022-12-18T00:13:42;102277.38;;;-3.36;68.15
60465;BME280;46314;52.392;9.758;2022-12-18T00:16:11;102273.78;;;-3.62;68.63
60465;BME280;46314;52.392;9.758;2022-12-18T00:18:38;102286.03;;;-3.41;68.87
60465;BME280;46314;52.392;9.758;2022-12-18T00:21:08;102295.84;;;-3.56;69.49
60465;BME280;46314;52.392;9.758;2022-12-18T00:23:36;102298.75;;;-3.50;68.65
60465;BME280;46314;52.392;9.758;2022-12-18T00:26:05;102288.78;;;-4.00;70.54
60465;BME280;46314;52.392;9.758;2022-12-18T00:28:33;102287.09;;;-3.93;70.32
60465;BME280;46314;52.392;9.758;2022-12-18T00:31:01;102285.66;;;-3.71;69.18
60465;BME280;46314;52.392;9.758;2022-12-18T00:33:28;102287.63;;;-3.89;69.64
60465;BME280;46314;52.392;9.758;2022-12-18T00:36:00;102288.88;;;-3.67;69.62
60465;BME280;46314;52.392;9.758;2022-12-18T00:38:27;102279.56;;;-3.40;68.27
60465;BME280;46314;52.392;9.758;2022-12-18T00:40:53;102274.25;;;-3.83;69.11
60465;BME280;46314;52.392;9.758;2022-12-18T00:43:20;102285.34;;;-3.18;68.55
60465;BME280;46314;52.392;9.758;2022-12-18T00:45:46;102276.34;;;-3.52;68.66
60465;BME280;46314;52.392;9.758;2022-12-18T00:48:14;102290.41;;;-3.65;69.19
60465;BME280;46314;52.392;9.758;2022-12-18T00:50:40;102300.78;;;-3.27;68.21
60465;BME280;46314;52.392;9.758;2022-12-18T00:53:11;102304.13;;;-3.58;69.16
60465;BME280;46314;52.392;9.758;2022-12-18T00:55:37;102307.72;;;-2.92;67.56
60465;BME280;46314;52.392;9.758;2022-12-18T00:58:04;102311.09;;;-3.06;66.79
60465;BME280;46314;52.392;9.758;2022-12-18T01:00:30;102301.44;;;-3.42;67.74
60465;BME280;46314;52.392;9.758;2022-12-18T01:02:57;102296.84;;;-3.57;68.57
60465;BME280;46314;52.392;9.758;2022-12-18T01:05:25;102298.84;;;-3.68;69.12
60465;BME280;46314;52.392;9.758;2022-12-18T01:07:52;102301.84;;;-3.95;70.13
60465;BME280;46314;52.392;9.758;2022-12-18T01:10:18;102298.84;;;-3.76;69.58
60465;BME280;46314;52.392;9.758;2022-12-18T01:12:45;102287.56;;;-3.30;67.75
60465;BME280;46314;52.392;9.758;2022-12-18T01:15:13;102286.31;;;-3.69;68.43
60465;BME280;46314;52.392;9.758;2022-12-18T01:17:39;102288.19;;;-3.77;69.55
60465;BME280;46314;52.392;9.758;2022-12-18T01:20:07;102291.28;;;-4.15;70.15
60465;BME280;46314;52.392;9.758;2022-12-18T01:22:35;102287.59;;;-4.06;70.03
60465;BME280;46314;52.392;9.758;2022-12-18T01:25:03;102296.88;;;-4.16;70.55
60465;BME280;46314;52.392;9.758;2022-12-18T01:27:30;102290.31;;;-4.06;70.03
60465;BME280;46314;52.392;9.758;2022-12-18T01:29:56;102286.75;;;-4.06;70.36
60465;BME280;46314;52.392;9.758;2022-12-18T01:32:23;102299.16;;;-3.95;69.88
60465;BME280;46314;52.392;9.758;2022-12-18T01:34:49;102298.13;;;-3.94;70.08
60465;BME280;46314;52.392;9.758;2022-12-18T01:37:16;102304.22;;;-3.92;69.93
60465;BME280;46314;52.392;9.758;2022-12-18T01:39:43;102296.78;;;-3.90;69.91
60465;BME280;46314;52.392;9.758;2022-12-18T01:42:12;102309.63;;;-4.01;70.96
60465;BME280;46314;52.392;9.758;2022-12-18T01:44:57;102310.16;;;-3.97;70.09
60465;BME280;46314;52.392;9.758;2022-12-18T01:47:26;102306.28;;;-3.86;70.01
60465;BME280;46314;52.392;9.758;2022-12-18T01:49:56;102307.41;;;-4.05;70.45
60465;BME280;46314;52.392;9.758;2022-12-18T01:52:24;102309.13;;;-3.96;70.22
60465;BME280;46314;52.392;9.758;2022-12-18T01:54:53;102315.75;;;-3.90;69.89
60465;BME280;46314;52.392;9.758;2022-12-18T01:57:19;102307.78;;;-3.92;69.72
60465;BME280;46314;52.392;9.758;2022-12-18T01:59:49;102310.53;;;-4.26;70.77
60465;BME280;46314;52.392;9.758;2022-12-18T02:02:18;102313.66;;;-4.05;70.67
60465;BME280;46314;52.392;9.758;2022-12-18T02:04:45;102314.97;;;-4.17;70.50
60465;BME280;46314;52.392;9.758;2022-12-18T02:07:21;102326.09;;;-3.94;70.51
60465;BME280;46314;52.392;9.758;2022-12-18T02:09:57;102328.56;;;-4.09;70.40
60465;BME280;46314;52.392;9.758;2022-12-18T02:12:28;102335.09;;;-3.85;69.55
60465;BME280;46314;52.392;9.758;2022-12-18T02:15:00;102321.94;;;-4.14;70.67
60465;BME280;46314;52.392;9.758;2022-12-18T02:17:34;102326.31;;;-3.63;69.16
60465;BME280;46314;52.392;9.758;2022-12-18T02:20:09;102324.22;;;-3.93;69.70
60465;BME280;46314;52.392;9.758;2022-12-18T02:22:44;102318.03;;;-4.12;70.19
60465;BME280;46314;52.392;9.758;2022-12-18T02:25:24;102327.19;;;-4.05;69.71
60465;BME280;46314;52.392;9.758;2022-12-18T02:27:59;102328.97;;;-3.95;70.25
60465;BME280;46314;52.392;9.758;2022-12-18T02:30:29;102326.88;;;-4.02;70.26
60465;BME280;46314;52.392;9.758;2022-12-18T02:32:59;102324.63;;;-3.64;69.18
60465;BME280;46314;52.392;9.758;2022-12-18T02:35:29;102320.00;;;-3.88;69.49
60465;BME280;46314;52.392;9.758;2022-12-18T02:37:57;102319.44;;;-4.08;70.08
60465;BME280;46314;52.392;9.758;2022-12-18T02:40:26;102304.00;;;-4.07;69.96
60465;BME280;46314;52.392;9.758;2022-12-18T02:42:53;102316.09;;;-3.93;69.56
60465;BME280;46314;52.392;9.758;2022-12-18T02:45:21;102309.28;;;-3.97;70.14
60465;BME280;46314;52.392;9.758;2022-12-18T02:47:49;102313.19;;;-4.00;69.94
60465;BME280;46314;52.392;9.758;2022-12-18T02:50:19;102311.66;;;-4.03;69.10
60465;BME280;46314;52.392;9.758;2022-12-18T02:52:55;102304.72;;;-3.89;69.38
60465;BME280;46314;52.392;9.758;2022-12-18T02:55:31;102294.53;;;-4.03;69.41
60465;BME280;46314;52.392;9.758;2022-12-18T02:58:04;102303.59;;;-4.21;70.22
60465;BME280;46314;52.392;9.758;2022-12-18T03:00:36;102301.88;;;-4.30;70.48
60465;BME280;46314;52.392;9.758;2022-12-18T03:03:09;102308.88;;;-4.53;70.91
60465;BME280;46314;52.392;9.758;2022-12-18T03:05:41;102307.75;;;-4.43;71.08
60465;BME280;46314;52.392;9.758;2022-12-18T03:08:13;102299.63;;;-4.43;71.22
60465;BME280;46314;52.392;9.758;2022-12-18T03:10:45;102296.94;;;-4.34;71.67
60465;BME280;46314;52.392;9.758;2022-12-18T03:13:19;102297.72;;;-4.50;71.55
60465;BME280;46314;52.392;9.758;2022-12-18T03:15:50;102301.00;;;-4.39;71.12
60465;BME280;46314;52.392;9.758;2022-12-18T03:18:22;102301.72;;;-4.28;71.44
60465;BME280;46314;52.392;9.758;2022-12-18T03:20:51;102303.13;;;-4.50;71.28
60465;BME280;46314;52.392;9.758;2022-12-18T03:23:22;102294.78;;;-4.23;70.16
60465;BME280;46314;52.392;9.758;2022-12-18T03:25:54;102283.94;;;-4.65;71.11
60465;BME280;46314;52.392;9.758;2022-12-18T03:28:22;102285.66;;;-4.64;71.70
60465;BME280;46314;52.392;9.758;2022-12-18T03:30:54;102291.22;;;-4.66;72.30
60465;BME280;46314;52.392;9.758;2022-12-18T03:33:26;102292.34;;;-4.77;71.87
60465;BME280;46314;52.392;9.758;2022-12-18T03:35:53;102281.28;;;-4.57;71.99
60465;BME280;46314;52.392;9.758;2022-12-18T03:38:20;102304.00;;;-4.50;71.34
60465;BME280;46314;52.392;9.758;2022-12-18T03:40:54;102307.91;;;-4.44;71.27
60465;BME280;46314;52.392;9.758;2022-12-18T03:43:34;102311.81;;;-3.96;70.07
60465;BME280;46314;52.392;9.758;2022-12-18T03:46:07;102312.44;;;-4.53;70.69
60465;BME280;46314;52.392;9.758;2022-12-18T03:48:39;102308.97;;;-4.37;71.05
60465;BME280;46314;52.392;9.758;2022-12-18T03:51:08;102302.19;;;-3.98;69.55
60465;BME280;46314;52.392;9.758;2022-12-18T03:53:40;102304.84;;;-4.07;69.33
60465;BME280;46314;52.392;9.758;2022-12-18T03:56:10;102309.81;;;-3.94;69.03
60465;BME280;46314;52.392;9.758;2022-12-18T03:58:40;102314.00;;;-4.00;69.16
60465;BME280;46314;52.392;9.758;2022-12-18T04:01:12;102324.22;;;-3.93;69.01
60465;BME280;46314;52.392;9.758;2022-12-18T04:03:40;102316.28;;;-3.87;68.30
60465;BME280;46314;52.392;9.758;2022-12-18T04:06:09;102315.94;;;-3.92;68.57
60465;BME280;46314;52.392;9.758;2022-12-18T04:08:36;102320.25;;;-3.56;67.78
60465;BME280;46314;52.392;9.758;2022-12-18T04:11:03;102323.28;;;-3.59;67.02
60465;BME280;46314;52.392;9.758;2022-12-18T04:13:34;102318.91;;;-3.60;66.90
60465;BME280;46314;52.392;9.758;2022-12-18T04:16:02;102320.03;;;-3.71;67.12
60465;BME280;46314;52.392;9.758;2022-12-18T04:18:30;102324.97;;;-3.67;67.04
60465;BME280;46314;52.392;9.758;2022-12-18T04:20:57;102326.41;;;-4.31;69.32
60465;BME280;46314;52.392;9.758;2022-12-18T04:23:23;102316.63;;;-4.24;69.07
60465;BME280;46314;52.392;9.758;2022-12-18T04:25:49;102321.53;;;-3.85;67.78
60465;BME280;46314;52.392;9.758;2022-12-18T04:28:16;102319.72;;;-3.60;66.91
60465;BME280;46314;52.392;9.758;2022-12-18T04:30:43;102315.69;;;-3.31;65.89
60465;BME280;46314;52.392;9.758;2022-12-18T04:33:10;102315.34;;;-3.53;65.60
60465;BME280;46314;52.392;9.758;2022-12-18T04:35:38;102313.06;;;-3.82;66.74
60465;BME280;46314;52.392;9.758;2022-12-18T04:38:05;102320.75;;;-4.46;67.97
60465;BME280;46314;52.392;9.758;2022-12-18T04:40:32;102310.09;;;-5.00;70.02
60465;BME280;46314;52.392;9.758;2022-12-18T04:42:58;102315.06;;;-4.61;69.02
60465;BME280;46314;52.392;9.758;2022-12-18T04:45:25;102306.25;;;-4.03;66.65
60465;BME280;46314;52.392;9.758;2022-12-18T04:47:52;102296.50;;;-3.71;65.49
60465;BME280;46314;52.392;9.758;2022-12-18T04:50:18;102296.50;;;-3.54;64.57
60465;BME280;46314;52.392;9.758;2022-12-18T04:52:46;102298.03;;;-3.52;64.33
60465;BME280;46314;52.392;9.758;2022-12-18T04:55:12;102306.34;;;-3.62;64.20
60465;BME280;46314;52.392;9.758;2022-12-18T04:57:39;102303.94;;;-4.24;65.16
60465;BME280;46314;52.392;9.758;2022-12-18T05:00:06;102298.69;;;-3.74;65.08
60465;BME280;46314;52.392;9.758;2022-12-18T05:02:33;102300.81;;;-4.03;65.30
60465;BME280;46314;52.392;9.758;2022-12-18T05:05:00;102300.78;;;-4.45;66.26
60465;BME280;46314;52.392;9.758;2022-12-18T05:07:26;102302.28;;;-5.03;68.33
60465;BME280;46314;52.392;9.758;2022-12-18T05:09:54;102304.06;;;-4.33;67.32
60465;BME280;46314;52.392;9.758;2022-12-18T05:12:20;102301.47;;;-4.09;65.99
60465;BME280;46314;52.392;9.758;2022-12-18T05:14:47;102307.94;;;-3.93;64.25
60465;BME280;46314;52.392;9.758;2022-12-18T05:17:13;102320.78;;;-4.04;64.26
60465;BME280;46314;52.392;9.758;2022-12-18T05:19:40;102327.28;;;-3.88;63.93
60465;BME280;46314;52.392;9.758;2022-12-18T05:22:06;102324.66;;;-4.14;65.13
60465;BME280;46314;52.392;9.758;2022-12-18T05:24:33;102321.09;;;-4.07;64.47
60465;BME280;46314;52.392;9.758;2022-12-18T05:27:01;102319.59;;;-4.01;64.31
60465;BME280;46314;52.392;9.758;2022-12-18T05:29:27;102316.13;;;-3.85;62.91
60465;BME280;46314;52.392;9.758;2022-12-18T05:31:54;102313.84;;;-4.06;63.27
60465;BME280;46314;52.392;9.758;2022-12-18T05:34:20;102316.56;;;-3.98;62.87
60465;BME280;46314;52.392;9.758;2022-12-18T05:36:47;102325.63;;;-3.81;62.59
60465;BME280;46314;52.392;9.758;2022-12-18T05:39:13;102325.53;;;-4.06;63.11
60465;BME280;46314;52.392;9.758;2022-12-18T05:41:39;102330.91;;;-4.14;63.72
60465;BME280;46314;52.392;9.758;2022-12-18T05:44:08;102333.59;;;-4.14;63.64
60465;BME280;46314;52.392;9.758;2022-12-18T05:46:34;102324.81;;;-4.16;63.45
60465;BME280;46314;52.392;9.758;2022-12-18T05:49:01;102336.34;;;-4.40;64.77
60465;BME280;46314;52.392;9.758;2022-12-18T05:51:28;102340.94;;;-4.41;65.36
60465;BME280;46314;52.392;9.758;2022-12-18T05:53:54;102343.81;;;-4.00;63.65
60465;BME280;46314;52.392;9.758;2022-12-18T05:56:22;102352.56;;;-4.14;63.28
60465;BME280;46314;52.392;9.758;2022-12-18T05:58:51;102360.47;;;-4.55;65.45
60465;BME280;46314;52.392;9.758;2022-12-18T06:01:21;102359.19;;;-4.08;64.37
60465;BME280;46314;52.392;9.758;2022-12-18T06:03:48;102353.00;;;-4.01;63.37
60465;BME280;46314;52.392;9.758;2022-12-18T06:06:16;102343.50;;;-3.96;62.62
60465;BME280;46314;52.392;9.758;2022-12-18T06:08:43;102333.25;;;-4.19;64.26
60465;BME280;46314;52.392;9.758;2022-12-18T06:11:12;102338.44;;;-4.34;64.41
60465;BME280;46314;52.392;9.758;2022-12-18T06:13:38;102345.00;;;-4.37;64.06
60465;BME280;46314;52.392;9.758;2022-12-18T06:16:06;102343.56;;;-4.23;63.66
60465;BME280;46314;52.392;9.758;2022-12-18T06:18:34;102348.84;;;-4.47;64.13
60465;BME280;46314;52.392;9.758;2022-12-18T06:21:00;102351.09;;;-4.34;66.10
60465;BME280;46314;52.392;9.758;2022-12-18T06:23:27;102350.47;;;-4.28;64.68
60465;BME280;46314;52.392;9.758;2022-12-18T06:25:54;102348.53;;;-4.10;64.44
60465;BME280;46314;52.392;9.758;2022-12-18T06:28:21;102345.22;;;-3.95;63.09
60465;BME280;46314;52.392;9.758;2022-12-18T06:30:48;102348.53;;;-4.44;64.71
60465;BME280;46314;52.392;9.758;2022-12-18T06:33:15;102341.53;;;-4.21;64.13
60465;BME280;46314;52.392;9.758;2022-12-18T06:35:43;102345.53;;;-3.98;62.88
60465;BME280;46314;52.392;9.758;2022-12-18T06:38:09;102340.69;;;-4.21;63.91
60465;BME280;46314;52.392;9.758;2022-12-18T06:40:37;102342.25;;;-4.19;63.43
60465;BME280;46314;52.392;9.758;2022-12-18T06:43:04;102342.94;;;-4.16;62.84
60465;BME280;46314;52.392;9.758;2022-12-18T06:45:30;102351.59;;;-4.65;64.35
60465;BME280;46314;52.392;9.758;2022-12-18T06:47:57;102355.34;;;-4.84;66.51
60465;BME280;46314;52.392;9.758;2022-12-18T06:50:24;102358.44;;;-4.79;65.96
60465;BME280;46314;52.392;9.758;2022-12-18T06:52:52;102356.13;;;-4.48;65.52
60465;BME280;46314;52.392;9.758;2022-12-18T06:55:18;102357.22;;;-3.98;64.05
60465;BME280;46314;52.392;9.758;2022-12-18T06:57:45;102361.75;;;-4.07;63.45
60465;BME280;46314;52.392;9.758;2022-12-18T07:00:12;102358.81;;;-4.74;66.09
60465;BME280;46314;52.392;9.758;2022-12-18T07:02:38;102358.41;;;-3.92;63.80
60465;BME280;46314;52.392;9.758;2022-12-18T07:05:06;102357.69;;;-4.11;63.77
60465;BME280;46314;52.392;9.758;2022-12-18T07:07:36;102361.88;;;-4.16;63.84
60465;BME280;46314;52.392;9.758;2022-12-18T07:10:05;102370.97;;;-4.26;63.68
60465;BME280;46314;52.392;9.758;2022-12-18T07:12:31;102375.47;;;-4.34;64.61
60465;BME280;46314;52.392;9.758;2022-12-18T07:14:57;102372.91;;;-4.10;64.28
60465;BME280;46314;52.392;9.758;2022-12-18T07:17:24;102368.25;;;-3.91;63.42
60465;BME280;46314;52.392;9.758;2022-12-18T07:19:50;102378.25;;;-3.92;62.37
60465;BME280;46314;52.392;9.758;2022-12-18T07:22:17;102385.38;;;-3.91;61.69
60465;BME280;46314;52.392;9.758;2022-12-18T07:24:44;102395.78;;;-4.12;62.34
60465;BME280;46314;52.392;9.758;2022-12-18T07:27:12;102394.34;;;-4.25;62.80
60465;BME280;46314;52.392;9.758;2022-12-18T07:29:39;102398.38;;;-4.03;62.17
60465;BME280;46314;52.392;9.758;2022-12-18T07:32:05;102398.00;;;-4.08;61.95
60465;BME280;46314;52.392;9.758;2022-12-18T07:34:32;102399.25;;;-3.94;61.68
60465;BME280;46314;52.392;9.758;2022-12-18T07:36:58;102399.56;;;-4.31;62.88
60465;BME280;46314;52.392;9.758;2022-12-18T07:39:25;102398.38;;;-4.03;62.28
60465;BME280;46314;52.392;9.758;2022-12-18T07:41:51;102400.59;;;-3.98;61.54
60465;BME280;46314;52.392;9.758;2022-12-18T07:44:19;102410.91;;;-4.02;61.69
60465;BME280;46314;52.392;9.758;2022-12-18T07:46:45;102414.22;;;-4.16;62.77
60465;BME280;46314;52.392;9.758;2022-12-18T07:49:12;102420.94;;;-4.90;65.72
60465;BME280;46314;52.392;9.758;2022-12-18T07:51:38;102413.91;;;-4.13;63.58
60465;BME280;46314;52.392;9.758;2022-12-18T07:54:05;102412.41;;;-4.33;63.88
60465;BME280;46314;52.392;9.758;2022-12-18T07:56:31;102410.94;;;-3.93;62.63
60465;BME280;46314;52.392;9.758;2022-12-18T07:58:58;102405.28;;;-4.34;64.23
60465;BME280;46314;52.392;9.758;2022-12-18T08:01:26;102393.91;;;-4.12;63.65
60465;BME280;46314;52.392;9.758;2022-12-18T08:03:53;102385.78;;;-4.12;64.11
60465;BME280;46314;52.392;9.758;2022-12-18T08:06:19;102391.56;;;-4.07;63.25
60465;BME280;46314;52.392;9.758;2022-12-18T08:08:50;102385.78;;;-4.12;64.16
60465;BME280;46314;52.392;9.758;2022-12-18T08:11:17;102390.63;;;-4.24;63.39
60465;BME280;46314;52.392;9.758;2022-12-18T08:13:45;102386.66;;;-4.03;63.63
60465;BME280;46314;52.392;9.758;2022-12-18T08:16:11;102382.97;;;-4.54;65.45
60465;BME280;46314;52.392;9.758;2022-12-18T08:18:39;102381.31;;;-4.21;63.83
60465;BME280;46314;52.392;9.758;2022-12-18T08:21:09;102381.19;;;-3.85;62.41
60465;BME280;46314;52.392;9.758;2022-12-18T08:23:35;102381.34;;;-3.87;62.52
60465;BME280;46314;52.392;9.758;2022-12-18T08:26:08;102379.66;;;-3.79;62.99
60465;BME280;46314;52.392;9.758;2022-12-18T08:28:35;102382.91;;;-3.68;62.70
60465;BME280;46314;52.392;9.758;2022-12-18T08:31:01;102379.25;;;-3.93;62.34
60465;BME280;46314;52.392;9.758;2022-12-18T08:33:28;102382.53;;;-3.81;63.59
60465;BME280;46314;52.392;9.758;2022-12-18T08:35:57;102380.19;;;-3.68;62.18
60465;BME280;46314;52.392;9.758;2022-12-18T08:38:24;102371.53;;;-4.14;64.38
60465;BME280;46314;52.392;9.758;2022-12-18T08:40:58;102358.09;;;-3.89;63.51
60465;BME280;46314;52.392;9.758;2022-12-18T08:43:25;102358.84;;;-3.71;63.81
60465;BME280;46314;52.392;9.758;2022-12-18T08:45:51;102362.94;;;-3.67;62.89
60465;BME280;46314;52.392;9.758;2022-12-18T08:48:17;102356.50;;;-3.57;62.44
60465;BME280;46314;52.392;9.758;2022-12-18T08:50:53;102367.41;;;-4.26;64.42
60465;BME280;46314;52.392;9.758;2022-12-18T08:53:21;102363.84;;;-3.92;63.74
60465;BME280;46314;52.392;9.758;2022-12-18T08:55:48;102367.88;;;-3.62;63.45
60465;BME280;46314;52.392;9.758;2022-12-18T08:58:16;102363.09;;;-3.68;63.54
60465;BME280;46314;52.392;9.758;2022-12-18T09:00:42;102359.88;;;-4.14;66.24
60465;BME280;46314;52.392;9.758;2022-12-18T09:03:11;102361.22;;;-4.19;66.46
60465;BME280;46314;52.392;9.758;2022-12-18T09:05:38;102362.78;;;-3.57;64.62
60465;BME280;46314;52.392;9.758;2022-12-18T09:08:04;102355.19;;;-3.37;63.26
60465;BME280;46314;52.392;9.758;2022-12-18T09:10:32;102348.06;;;-3.46;64.39
60465;BME280;46314;52.392;9.758;2022-12-18T09:13:01;102356.81;;;-3.69;64.90
60465;BME280;46314;52.392;9.758;2022-12-18T09:15:28;102353.59;;;-3.72;65.60
60465;BME280;46314;52.392;9.758;2022-12-18T09:17:54;102347.41;;;-3.91;65.83
60465;BME280;46314;52.392;9.758;2022-12-18T09:20:21;102341.47;;;-3.35;64.80
60465;BME280;46314;52.392;9.758;2022-12-18T09:22:47;102342.34;;;-3.10;64.08
60465;BME280;46314;52.392;9.758;2022-12-18T09:25:13;102342.22;;;-3.68;65.49
60465;BME280;46314;52.392;9.758;2022-12-18T09:27:41;102336.88;;;-3.43;66.01
60465;BME280;46314;52.392;9.758;2022-12-18T09:30:09;102343.66;;;-3.31;65.68
60465;BME280;46314;52.392;9.758;2022-12-18T09:32:35;102345.38;;;-3.21;65.48
60465;BME280;46314;52.392;9.758;2022-12-18T09:35:02;102345.38;;;-3.05;65.18
60465;BME280;46314;52.392;9.758;2022-12-18T09:37:29;102344.88;;;-3.09;64.64
60465;BME280;46314;52.392;9.758;2022-12-18T09:39:55;102346.75;;;-2.84;65.00
60465;BME280;46314;52.392;9.758;2022-12-18T09:42:22;102352.53;;;-2.79;65.06
60465;BME280;46314;52.392;9.758;2022-12-18T09:44:52;102354.72;;;-2.67;64.97
60465;BME280;46314;52.392;9.758;2022-12-18T09:47:22;102349.06;;;-2.49;64.74
60465;BME280;46314;52.392;9.758;2022-12-18T09:49:52;102343.63;;;-2.32;63.64
60465;BME280;46314;52.392;9.758;2022-12-18T09:52:24;102354.19;;;-2.62;65.37
60465;BME280;46314;52.392;9.758;2022-12-18T09:54:56;102362.50;;;-3.05;66.42
60465;BME280;46314;52.392;9.758;2022-12-18T09:57:24;102360.59;;;-2.47;64.96
60465;BME280;46314;52.392;9.758;2022-12-18T09:59:54;102364.31;;;-2.39;65.09
60465;BME280;46314;52.392;9.758;2022-12-18T10:02:24;102363.91;;;-2.03;64.74
60465;BME280;46314;52.392;9.758;2022-12-18T10:05:01;102355.66;;;-2.26;64.60
60465;BME280;46314;52.392;9.758;2022-12-18T10:07:34;102355.13;;;-1.82;64.29
60465;BME280;46314;52.392;9.758;2022-12-18T10:10:08;102363.94;;;-1.72;63.72
60465;BME280;46314;52.392;9.758;2022-12-18T10:12:45;102360.03;;;-2.17;65.18
60465;BME280;46314;52.392;9.758;2022-12-18T10:15:23;102365.53;;;-2.34;66.30
60465;BME280;46314;52.392;9.758;2022-12-18T10:17:54;102370.97;;;-1.86;64.98
60465;BME280;46314;52.392;9.758;2022-12-18T10:20:30;102365.97;;;-1.43;64.23
60465;BME280;46314;52.392;9.758;2022-12-18T10:23:02;102367.00;;;-1.44;64.67
60465;BME280;46314;52.392;9.758;2022-12-18T10:25:35;102357.38;;;-1.55;64.69
60465;BME280;46314;52.392;9.758;2022-12-18T10:28:10;102359.78;;;-1.91;65.62
60465;BME280;46314;52.392;9.758;2022-12-18T10:30:40;102359.16;;;-1.39;64.87
60465;BME280;46314;52.392;9.758;2022-12-18T10:33:10;102355.28;;;-1.76;66.15
60465;BME280;46314;52.392;9.758;2022-12-18T10:35:40;102360.66;;;-1.13;64.50
60465;BME280;46314;52.392;9.758;2022-12-18T10:38:21;102351.88;;;-1.23;65.30
60465;BME280;46314;52.392;9.758;2022-12-18T10:40:50;102352.41;;;-0.97;64.31
60465;BME280;46314;52.392;9.758;2022-12-18T10:43:21;102349.56;;;-0.35;62.26
60465;BME280;46314;52.392;9.758;2022-12-18T10:46:01;102348.25;;;-0.92;64.31
60465;BME280;46314;52.392;9.758;2022-12-18T10:48:30;102347.72;;;-1.11;65.62
60465;BME280;46314;52.392;9.758;2022-12-18T10:50:57;102356.72;;;-0.87;64.79
60465;BME280;46314;52.392;9.758;2022-12-18T10:53:40;102352.44;;;-1.28;65.66
60465;BME280;46314;52.392;9.758;2022-12-18T10:56:08;102341.84;;;-0.62;65.44
60465;BME280;46314;52.392;9.758;2022-12-18T10:58:36;102332.34;;;-1.27;66.40
60465;BME280;46314;52.392;9.758;2022-12-18T11:01:08;102327.94;;;-1.05;65.93
60465;BME280;46314;52.392;9.758;2022-12-18T11:03:36;102320.44;;;-1.03;65.64
60465;BME280;46314;52.392;9.758;2022-12-18T11:06:06;102306.81;;;-0.65;64.21
60465;BME280;46314;52.392;9.758;2022-12-18T11:08:33;102305.75;;;-0.64;65.08
60465;BME280;46314;52.392;9.758;2022-12-18T11:11:00;102296.28;;;-0.23;64.09
60465;BME280;46314;52.392;9.758;2022-12-18T11:13:29;102296.50;;;-0.92;65.11
60465;BME280;46314;52.392;9.758;2022-12-18T11:15:56;102307.59;;;-0.94;65.96
60465;BME280;46314;52.392;9.758;2022-12-18T11:18:27;102311.06;;;-0.17;63.80
60465;BME280;46314;52.392;9.758;2022-12-18T11:20:56;102309.25;;;-0.10;62.88
60465;BME280;46314;52.392;9.758;2022-12-18T11:23:25;102316.16;;;0.22;62.65
60465;BME280;46314;52.392;9.758;2022-12-18T11:25:59;102316.50;;;-0.47;63.22
60465;BME280;46314;52.392;9.758;2022-12-18T11:28:36;102319.97;;;-0.24;64.22
60465;BME280;46314;52.392;9.758;2022-12-18T11:31:24;102311.72;;;0.21;62.27
60465;BME280;46314;52.392;9.758;2022-12-18T11:33:59;102328.75;;;0.60;61.39
60465;BME280;46314;52.392;9.758;2022-12-18T11:36:47;102305.75;;;-0.04;62.43
60465;BME280;46314;52.392;9.758;2022-12-18T11:39:18;102306.53;;;-0.10;62.61
60465;BME280;46314;52.392;9.758;2022-12-18T11:41:52;102306.81;;;-0.05;62.70
60465;BME280;46314;52.392;9.758;2022-12-18T11:44:26;102295.13;;;0.01;62.51
60465;BME280;46314;52.392;9.758;2022-12-18T11:46:59;102288.69;;;-0.28;63.09
60465;BME280;46314;52.392;9.758;2022-12-18T11:49:32;102279.41;;;0.03;62.60
60465;BME280;46314;52.392;9.758;2022-12-18T11:52:02;102264.41;;;-0.23;62.20
60465;BME280;46314;52.392;9.758;2022-12-18T11:54:30;102256.25;;;-0.38;63.28
60465;BME280;46314;52.392;9.758;2022-12-18T11:57:05;102244.41;;;-0.30;63.48
60465;BME280;46314;52.392;9.758;2022-12-18T11:59:44;102243.44;;;-0.22;63.52
60465;BME280;46314;52.392;9.758;2022-12-18T12:02:26;102242.00;;;-0.03;63.45
60465;BME280;46314;52.392;9.758;2022-12-18T12:05:12;102234.63;;;-0.24;63.58
60465;BME280;46314;52.392;9.758;2022-12-18T12:07:45;102228.78;;;-0.21;63.37
60465;BME280;46314;52.392;9.758;2022-12-18T12:10:18;102225.16;;;-0.58;65.05
60465;BME280;46314;52.392;9.758;2022-12-18T12:13:03;102226.34;;;-0.31;63.66
60465;BME280;46314;52.392;9.758;2022-12-18T12:15:39;102215.38;;;-0.52;64.03
60465;BME280;46314;52.392;9.758;2022-12-18T12:18:17;102203.88;;;-0.33;63.38
60465;BME280;46314;52.392;9.758;2022-12-18T12:21:00;102206.94;;;-0.58;63.92
60465;BME280;46314;52.392;9.758;2022-12-18T12:23:37;102202.56;;;-0.01;62.82
60465;BME280;46314;52.392;9.758;2022-12-18T12:26:10;102206.84;;;-0.13;62.70
60465;BME280;46314;52.392;9.758;2022-12-18T12:29:15;102207.94;;;-0.07;62.14
60465;BME280;46314;52.392;9.758;2022-12-18T12:31:57;102213.34;;;-0.14;62.36
60465;BME280;46314;52.392;9.758;2022-12-18T12:34:32;102208.00;;;0.14;61.41
60465;BME280;46314;52.392;9.758;2022-12-18T12:37:15;102207.03;;;-0.14;62.12
60465;BME280;46314;52.392;9.758;2022-12-18T12:39:46;102197.28;;;-0.24;61.79
60465;BME280;46314;52.392;9.758;2022-12-18T12:42:18;102204.91;;;-0.19;61.58
60465;BME280;46314;52.392;9.758;2022-12-18T12:44:49;102194.56;;;-0.24;61.57
60465;BME280;46314;52.392;9.758;2022-12-18T12:47:26;102194.63;;;-0.17;61.19
60465;BME280;46314;52.392;9.758;2022-12-18T12:49:56;102191.75;;;-0.30;61.75
60465;BME280;46314;52.392;9.758;2022-12-18T12:52:30;102190.06;;;-0.46;62.11
60465;BME280;46314;52.392;9.758;2022-12-18T12:54:59;102180.03;;;-0.61;62.56
60465;BME280;46314;52.392;9.758;2022-12-18T12:57:33;102181.53;;;-0.43;62.25
60465;BME280;46314;52.392;9.758;2022-12-18T13:00:04;102178.44;;;-0.40;62.43
60465;BME280;46314;52.392;9.758;2022-12-18T13:02:37;102176.44;;;-0.31;62.11